Aeroporto :
LOGIN :

Iscrizione | Disclaimer

   EN    FR    IT 

 










Sommario :    VFR   VFR Marginale   IFR   IFR Intensivo   IFR Molto Intensivo
Visibilità : 
Base nubi : 
>= 8 km
>= 3000ft
5 / 8 km
1000 / 3000 ft
1500m / 5 km
500 / 1000 ft
800 / 1500m
200 / 500 ft
< 800m
< 200 ft
Simboli :   Temporali  Nebbia  Neve Forte  Precipitazioni Forti  Vento > 20 kt
SIGMETs :   Varie  Temporali  Ghiacco  Turbolenza  Onda orograficha  Ceneri Vulcaniche






- Altitudine del aeroporto : 1548 ft


LKNA - Náměšť Air Base

ULTIMO METAR :
  • 221930Z 11007KT CAVOK 19/07 Q1012 NOSIG RMK BLU BLU

METARs OBSOLETI :
  • 221900Z 11009KT CAVOK 19/08 Q1012 NOSIG RMK BLU BLU
  • 221830Z 10008KT CAVOK 19/08 Q1012 NOSIG RMK BLU BLU
  • 221800Z 11007KT CAVOK 19/08 Q1012 NOSIG RMK BLU BLU
  • 221730Z 13009KT CAVOK 20/09 Q1013 NOSIG RMK BLU BLU
  • 221700Z 12008KT CAVOK 20/09 Q1013 NOSIG RMK BLU BLU

TAF TAF LKNA
Valido dal 22 a 18 ore il 23 a 18 ore UTC


221700Z 2218/2318 14008KT CAVOK
BECMG 2306/2308 BKN030
BECMG 2312/2314 20008KT
TEMPO 2313/2318 28016KT SHRA SCT020TCU BKN025



MetMap, La meteo Aeronautica in un colpo d'occhio ! - Copyright ORBIFLY Dicembre 2007 - Disclaimer

ORBIFLY MET'MAP TEAM :

Programmazione e sviluppo : Alexandra Zaïnal
Concezione : Baudouin d'Aumeries
Aiuto per la programmazione : Marc-Olivier Méhu
Supporto tecnico e logistico : Manuel Goepfert
Aiuto per la traduzione : Arnaldo La Scala

Contatto : metmap@orbifly.com




FONTI E CREDITI :

   NOAA